createdAt,value
2019-03-20T00:00:57.537Z,100609.92
2019-03-20T00:03:25.420Z,100609.92
2019-03-20T00:05:53.196Z,100617.37
2019-03-20T00:08:20.949Z,100606.58
2019-03-20T00:10:49.122Z,100605.59
2019-03-20T00:13:16.911Z,100609.13
2019-03-20T00:15:44.758Z,100602.82
2019-03-20T00:18:12.538Z,100609.09
2019-03-20T00:20:40.327Z,100524.95
2019-03-20T00:23:08.091Z,100599.47
2019-03-20T00:25:36.318Z,100594.76
2019-03-20T00:28:04.266Z,100632.11
2019-03-20T00:30:32.133Z,100596.30
2019-03-20T00:33:00.187Z,100569.95
2019-03-20T00:35:27.998Z,100592.19
2019-03-20T00:37:55.847Z,100592.36
2019-03-20T00:40:23.909Z,100590.98
2019-03-20T00:42:51.663Z,100594.29
2019-03-20T00:45:19.463Z,100588.41
2019-03-20T00:47:47.544Z,100593.32
2019-03-20T00:50:15.426Z,100601.73
2019-03-20T00:52:43.245Z,100598.80
2019-03-20T00:55:11.594Z,100599.75
2019-03-20T00:57:39.469Z,100596.98
2019-03-20T01:00:09.877Z,100596.59
2019-03-20T01:02:37.999Z,100600.69
2019-03-20T01:05:12.468Z,100585.78
2019-03-20T01:07:33.895Z,100579.09
2019-03-20T01:10:02.315Z,100583.20
2019-03-20T01:12:30.210Z,100577.09
2019-03-20T01:14:58.018Z,100586.13
2019-03-20T01:17:26.106Z,100582.00
2019-03-20T01:19:53.937Z,100588.27
2019-03-20T01:22:21.703Z,100586.70
2019-03-20T01:24:49.746Z,100567.20
2019-03-20T01:27:17.611Z,100587.23
2019-03-20T01:29:45.342Z,100580.34
2019-03-20T01:32:13.430Z,100585.64
2019-03-20T01:34:41.213Z,100583.47
2019-03-20T01:37:08.974Z,100547.83
2019-03-20T01:39:37.026Z,100597.56
2019-03-20T01:42:04.883Z,100598.34
2019-03-20T01:44:32.654Z,100593.42
2019-03-20T01:47:00.727Z,100598.71
2019-03-20T01:49:28.457Z,100602.24
2019-03-20T01:51:56.233Z,100610.86
2019-03-20T01:54:24.317Z,100611.42
2019-03-20T01:56:52.086Z,100603.95
2019-03-20T01:59:19.886Z,100611.40
2019-03-20T02:01:47.969Z,100611.78
2019-03-20T02:04:15.734Z,100618.62
2019-03-20T02:06:43.498Z,100644.08
2019-03-20T02:09:11.531Z,100614.84
2019-03-20T02:11:39.580Z,100621.09
2019-03-20T02:14:07.397Z,100619.28
2019-03-20T02:16:36.301Z,100614.61
2019-03-20T02:19:04.233Z,100608.92
2019-03-20T02:21:32.142Z,100609.67
2019-03-20T02:24:00.091Z,100611.22
2019-03-20T02:26:27.870Z,100601.19
2019-03-20T02:28:55.890Z,100602.95
2019-03-20T02:31:23.687Z,100613.13
2019-03-20T02:33:51.432Z,100599.61
2019-03-20T02:36:19.546Z,100623.67
2019-03-20T02:38:47.287Z,100606.42
2019-03-20T02:41:15.066Z,100606.39
2019-03-20T02:43:42.856Z,100605.77
2019-03-20T02:46:10.607Z,100607.14
2019-03-20T02:48:38.424Z,100606.75
2019-03-20T02:51:06.547Z,100591.55
2019-03-20T02:53:34.378Z,100618.23
2019-03-20T02:56:03.399Z,100619.94
2019-03-20T02:58:33.819Z,100626.34
2019-03-20T03:01:03.427Z,100621.61
2019-03-20T03:03:33.448Z,100624.51
2019-03-20T03:06:07.344Z,100579.03
2019-03-20T03:08:29.609Z,100622.12
2019-03-20T03:10:57.311Z,100620.13
2019-03-20T03:13:24.988Z,100628.23
2019-03-20T03:15:53.187Z,100633.72
2019-03-20T03:18:20.921Z,100621.14
2019-03-20T03:20:48.628Z,100624.88
2019-03-20T03:23:16.345Z,100627.82
2019-03-20T03:25:44.061Z,100622.91
2019-03-20T03:28:11.760Z,100622.72
2019-03-20T03:30:39.910Z,100625.44
2019-03-20T03:33:07.606Z,100622.85
2019-03-20T03:35:35.315Z,100628.52
2019-03-20T03:38:03.056Z,100631.41
2019-03-20T03:40:30.818Z,100636.51
2019-03-20T03:42:58.528Z,100640.97
2019-03-20T03:45:26.661Z,100637.55
2019-03-20T03:47:54.368Z,100649.51
2019-03-20T03:50:22.068Z,100646.31
2019-03-20T03:52:50.386Z,100412.99
2019-03-20T03:55:18.108Z,100649.34
2019-03-20T03:57:46.059Z,100654.81
2019-03-20T04:00:14.463Z,100420.00
2019-03-20T04:02:42.195Z,100660.23
2019-03-20T04:05:10.110Z,100657.63
2019-03-20T04:07:37.830Z,100653.05
2019-03-20T04:10:06.552Z,100653.82
2019-03-20T04:12:34.262Z,100654.97
2019-03-20T04:15:02.427Z,100649.05
2019-03-20T04:17:30.230Z,100647.23
2019-03-20T04:19:57.958Z,100647.20
2019-03-20T04:22:25.915Z,100644.47
2019-03-20T04:24:53.619Z,100623.41
2019-03-20T04:27:21.359Z,100626.71
2019-03-20T04:29:49.466Z,100633.70
2019-03-20T04:32:17.225Z,100638.33
2019-03-20T04:34:44.943Z,100658.98
2019-03-20T04:37:13.073Z,100626.70
2019-03-20T04:39:40.832Z,100674.50
2019-03-20T04:42:08.499Z,100667.64
2019-03-20T04:44:36.539Z,100629.88
2019-03-20T04:47:04.511Z,100667.95
2019-03-20T04:49:32.281Z,100659.89
2019-03-20T04:52:00.278Z,100633.53
2019-03-20T04:54:28.000Z,100677.23
2019-03-20T04:56:55.679Z,100670.93
2019-03-20T04:59:23.365Z,100638.91
2019-03-20T05:01:51.112Z,100702.34
2019-03-20T05:04:19.032Z,100619.66
2019-03-20T05:06:57.879Z,100673.53
2019-03-20T05:09:14.828Z,100656.49
2019-03-20T05:11:42.517Z,100633.98
2019-03-20T05:14:12.519Z,100678.89
2019-03-20T05:16:39.382Z,100644.05
2019-03-20T05:19:07.400Z,100659.52
2019-03-20T05:21:35.589Z,100662.25
2019-03-20T05:24:03.398Z,100685.70
2019-03-20T05:26:31.096Z,100683.02
2019-03-20T05:28:58.884Z,100660.63
2019-03-20T05:31:26.566Z,100685.90
2019-03-20T05:33:54.275Z,100685.50
2019-03-20T05:36:22.329Z,100634.81
2019-03-20T05:38:50.010Z,100704.53
2019-03-20T05:41:17.831Z,100679.14
2019-03-20T05:43:46.199Z,100652.02
2019-03-20T05:46:14.097Z,100702.25
2019-03-20T05:48:41.854Z,100704.98
2019-03-20T05:51:09.863Z,100680.38
2019-03-20T05:53:37.635Z,100701.45
2019-03-20T05:56:05.464Z,100693.67
2019-03-20T05:58:33.644Z,100711.43
2019-03-20T06:01:01.597Z,100718.92
2019-03-20T06:03:29.335Z,100723.09
2019-03-20T06:05:57.447Z,100729.61
2019-03-20T06:08:25.278Z,100705.98
2019-03-20T06:10:53.109Z,100667.75
2019-03-20T06:13:21.341Z,100731.44
2019-03-20T06:15:49.453Z,100725.79
2019-03-20T06:18:21.721Z,100729.92
2019-03-20T06:20:49.791Z,100705.16
2019-03-20T06:23:17.587Z,100711.48
2019-03-20T06:25:45.461Z,100738.14
2019-03-20T06:28:13.817Z,100714.52
2019-03-20T06:30:41.784Z,100728.06
2019-03-20T06:33:09.524Z,100748.83
2019-03-20T06:35:37.613Z,100733.05
2019-03-20T06:38:05.368Z,100736.61
2019-03-20T06:40:33.096Z,100755.02
2019-03-20T06:43:01.180Z,100736.11
2019-03-20T06:45:28.942Z,100769.03
2019-03-20T06:47:56.728Z,100763.25
2019-03-20T06:50:24.945Z,100745.01
2019-03-20T06:52:52.761Z,100761.46
2019-03-20T06:55:20.457Z,100634.27
2019-03-20T06:57:48.580Z,100770.44
2019-03-20T07:00:28.279Z,100782.30
2019-03-20T07:02:56.558Z,100752.67
2019-03-20T07:05:43.134Z,100758.27
2019-03-20T07:08:10.974Z,100779.50
2019-03-20T07:11:16.607Z,100741.48
2019-03-20T07:13:44.350Z,100738.27
2019-03-20T07:16:12.144Z,100757.36
2019-03-20T07:18:40.347Z,100801.64
2019-03-20T07:21:08.064Z,100769.63
2019-03-20T07:23:35.875Z,100751.73
2019-03-20T07:26:04.172Z,100772.56
2019-03-20T07:28:31.895Z,100758.67
2019-03-20T07:30:59.690Z,100787.53
2019-03-20T07:33:27.845Z,100780.53
2019-03-20T07:35:55.664Z,100757.59
2019-03-20T07:38:23.707Z,100746.59
2019-03-20T07:40:51.694Z,100787.88
2019-03-20T07:43:19.468Z,100794.92
2019-03-20T07:45:47.507Z,100813.36
2019-03-20T07:48:22.117Z,100799.06
2019-03-20T07:50:43.461Z,100799.91
2019-03-20T07:53:11.255Z,100799.55
2019-03-20T07:55:38.967Z,100785.08
2019-03-20T07:58:06.903Z,100797.19
2019-03-20T08:00:34.679Z,100797.95
2019-03-20T08:03:02.766Z,100802.90
2019-03-20T08:05:30.641Z,100793.48
2019-03-20T08:08:06.748Z,100808.44
2019-03-20T08:10:27.248Z,100804.62
2019-03-20T08:12:55.252Z,100788.38
2019-03-20T08:15:22.975Z,100810.22
2019-03-20T08:17:51.040Z,100812.56
2019-03-20T08:20:18.827Z,100761.22
2019-03-20T08:22:46.544Z,100817.59
2019-03-20T08:25:14.220Z,100815.45
2019-03-20T08:27:41.939Z,100817.77
2019-03-20T08:30:13.667Z,100824.01
2019-03-20T08:32:39.536Z,100769.71
2019-03-20T08:35:08.536Z,100818.98
2019-03-20T08:37:36.416Z,100782.61
2019-03-20T08:40:05.134Z,100809.73
2019-03-20T08:42:33.364Z,100760.95
2019-03-20T08:45:01.113Z,100802.85
2019-03-20T08:47:29.476Z,100793.73
2019-03-20T08:49:57.186Z,100832.36
2019-03-20T08:52:24.990Z,100839.45
2019-03-20T08:54:52.751Z,100836.33
2019-03-20T08:57:20.493Z,100840.91
2019-03-20T08:59:48.655Z,100823.62
2019-03-20T09:02:16.675Z,100844.45
2019-03-20T09:04:44.677Z,100827.88
2019-03-20T09:07:12.575Z,100846.58
2019-03-20T09:09:40.312Z,100849.72
2019-03-20T09:12:08.163Z,100825.77
2019-03-20T09:14:36.005Z,100819.97
2019-03-20T09:17:03.828Z,100827.61
2019-03-20T09:19:31.547Z,100839.60
2019-03-20T09:21:59.319Z,100829.09
2019-03-20T09:24:27.429Z,100847.97
2019-03-20T09:26:55.120Z,100853.66
2019-03-20T09:29:22.867Z,100868.18
2019-03-20T09:31:51.031Z,100835.27
2019-03-20T09:34:18.711Z,100833.03
2019-03-20T09:36:46.801Z,100844.27
2019-03-20T09:39:14.801Z,100864.23
2019-03-20T09:41:42.499Z,100861.16
2019-03-20T09:44:10.196Z,100848.73
2019-03-20T09:46:38.496Z,100819.11
2019-03-20T09:49:06.204Z,100863.25
2019-03-20T09:51:33.939Z,100841.20
2019-03-20T09:54:01.961Z,100862.06
2019-03-20T09:56:29.767Z,100858.06
2019-03-20T09:58:57.467Z,100859.67
2019-03-20T10:01:25.693Z,100821.05
2019-03-20T10:03:55.139Z,100846.45
2019-03-20T10:06:22.879Z,100848.45
2019-03-20T10:08:54.306Z,100808.91
2019-03-20T10:11:19.206Z,100844.08
2019-03-20T10:13:47.004Z,100839.86
2019-03-20T10:16:16.100Z,100776.59
2019-03-20T10:18:44.386Z,100829.16
2019-03-20T10:21:12.087Z,100832.66
2019-03-20T10:23:40.158Z,100833.48
2019-03-20T10:26:08.056Z,100803.63
2019-03-20T10:28:35.845Z,100836.28
2019-03-20T10:31:04.130Z,100830.69
2019-03-20T10:33:32.079Z,100826.86
2019-03-20T10:35:59.814Z,100825.89
2019-03-20T10:38:27.817Z,100830.16
2019-03-20T10:40:55.524Z,100829.98
2019-03-20T10:43:23.279Z,100827.98
2019-03-20T10:45:50.978Z,100823.48
2019-03-20T10:48:18.896Z,100810.41
2019-03-20T10:50:46.682Z,100811.08
2019-03-20T10:53:14.689Z,100790.08
2019-03-20T10:55:42.572Z,100816.23
2019-03-20T10:58:10.300Z,100829.92
2019-03-20T11:00:40.677Z,100798.64
2019-03-20T11:03:06.604Z,100824.66
2019-03-20T11:05:34.618Z,100799.55
2019-03-20T11:08:03.763Z,100746.62
2019-03-20T11:10:31.782Z,100813.34
2019-03-20T11:13:01.166Z,100829.59
2019-03-20T11:15:29.871Z,100824.95
2019-03-20T11:17:56.940Z,100827.44
2019-03-20T11:20:25.160Z,100797.22
2019-03-20T11:22:53.740Z,100795.51
2019-03-20T11:25:21.501Z,100828.30
2019-03-20T11:27:49.592Z,100831.62
2019-03-20T11:30:20.294Z,100821.52
2019-03-20T11:32:48.197Z,100814.67
2019-03-20T11:35:17.364Z,100808.81
2019-03-20T11:37:45.108Z,100771.12
2019-03-20T11:40:17.836Z,100812.55
2019-03-20T11:42:45.873Z,100823.23
2019-03-20T11:45:13.720Z,100758.71
2019-03-20T11:47:41.745Z,100820.91
2019-03-20T11:50:13.614Z,100818.16
2019-03-20T11:52:41.621Z,100816.00
2019-03-20T11:55:10.470Z,100795.05
2019-03-20T11:57:38.523Z,100803.08
2019-03-20T12:00:09.079Z,100802.03
2019-03-20T12:02:38.106Z,100734.52
2019-03-20T12:05:06.595Z,100772.13
2019-03-20T12:07:35.650Z,100803.04
2019-03-20T12:10:08.747Z,100802.22
2019-03-20T12:12:36.893Z,100787.27
2019-03-20T12:15:06.960Z,100795.56
2019-03-20T12:17:36.006Z,100798.34
2019-03-20T12:20:10.835Z,100783.33
2019-03-20T12:22:40.315Z,100794.98
2019-03-20T12:25:12.170Z,100765.75
2019-03-20T12:27:40.568Z,100794.24
2019-03-20T12:30:10.911Z,100815.20
2019-03-20T12:32:42.177Z,100755.98
2019-03-20T12:35:11.902Z,100784.70
2019-03-20T12:37:41.165Z,100767.08
2019-03-20T12:40:14.391Z,100766.44
2019-03-20T12:42:44.866Z,100685.92
2019-03-20T12:45:13.906Z,100770.69
2019-03-20T12:47:41.837Z,100770.81
2019-03-20T12:50:11.208Z,100726.20
2019-03-20T12:52:39.891Z,100764.84
2019-03-20T12:55:09.600Z,100741.41
2019-03-20T12:57:37.626Z,100729.51
2019-03-20T13:00:08.676Z,100663.84
2019-03-20T13:02:37.305Z,100748.41
2019-03-20T13:05:06.509Z,100745.83
2019-03-20T13:07:34.381Z,100749.50
2019-03-20T13:10:10.737Z,100744.36
2019-03-20T13:12:38.791Z,100747.31
2019-03-20T13:15:08.287Z,100734.30
2019-03-20T13:17:36.445Z,100755.68
2019-03-20T13:20:06.179Z,100755.77
2019-03-20T13:22:34.676Z,100756.17
2019-03-20T13:25:03.924Z,100758.09
2019-03-20T13:27:33.960Z,100748.00
2019-03-20T13:30:04.013Z,100756.05
2019-03-20T13:32:32.238Z,100740.39
2019-03-20T13:35:00.953Z,100729.09
2019-03-20T13:37:28.839Z,100745.09
2019-03-20T13:39:57.667Z,100728.02
2019-03-20T13:42:26.694Z,100742.26
2019-03-20T13:44:55.054Z,100748.70
2019-03-20T13:47:23.295Z,100699.62
2019-03-20T13:49:52.989Z,100710.28
2019-03-20T13:52:21.485Z,100716.76
2019-03-20T13:54:53.195Z,100743.08
2019-03-20T13:57:21.934Z,100730.17
2019-03-20T13:59:54.801Z,100742.81
2019-03-20T14:02:24.261Z,100749.27
2019-03-20T14:04:52.918Z,100751.31
2019-03-20T14:07:26.071Z,100692.25
2019-03-20T14:09:55.107Z,100762.33
2019-03-20T14:12:25.877Z,100653.77
2019-03-20T14:14:53.894Z,100767.73
2019-03-20T14:17:21.726Z,100767.87
2019-03-20T14:19:50.767Z,100755.86
2019-03-20T14:22:20.041Z,100732.98
2019-03-20T14:24:51.766Z,100749.41
2019-03-20T14:27:22.846Z,100745.81
2019-03-20T14:29:50.736Z,100764.66
2019-03-20T14:32:21.849Z,100706.67
2019-03-20T14:34:50.831Z,100666.95
2019-03-20T14:37:33.920Z,100760.66
2019-03-20T14:40:03.239Z,100756.07
2019-03-20T14:42:31.131Z,100711.33
2019-03-20T14:45:00.833Z,100691.59
2019-03-20T14:47:29.271Z,100736.77
2019-03-20T14:49:57.032Z,100747.57
2019-03-20T14:52:25.802Z,100713.66
2019-03-20T14:54:53.815Z,100710.45
2019-03-20T14:57:21.525Z,100747.29
2019-03-20T15:00:05.638Z,100680.47
2019-03-20T15:02:33.609Z,100750.27
2019-03-20T15:05:04.592Z,100721.55
2019-03-20T15:07:35.383Z,100760.55
2019-03-20T15:10:05.263Z,100736.28
2019-03-20T15:12:34.673Z,100713.55
2019-03-20T15:15:04.288Z,100698.89
2019-03-20T15:17:32.632Z,100728.35
2019-03-20T15:20:02.837Z,100722.38
2019-03-20T15:22:37.081Z,100717.72
2019-03-20T15:25:06.480Z,100721.06
2019-03-20T15:27:35.239Z,100687.23
2019-03-20T15:30:09.218Z,100703.80
2019-03-20T15:32:38.661Z,100722.19
2019-03-20T15:35:08.751Z,100649.05
2019-03-20T15:37:37.280Z,100696.94
2019-03-20T15:40:08.066Z,100696.90
2019-03-20T15:42:39.905Z,100703.64
2019-03-20T15:45:11.416Z,100703.98
2019-03-20T15:47:39.742Z,100669.31
2019-03-20T15:50:10.837Z,100687.33
2019-03-20T15:52:41.368Z,100702.38
2019-03-20T15:55:13.857Z,100700.44
2019-03-20T15:57:43.237Z,100699.25
2019-03-20T16:00:15.088Z,100704.42
2019-03-20T16:02:43.544Z,100702.80
2019-03-20T16:05:12.180Z,100708.63
2019-03-20T16:07:40.354Z,100709.09
2019-03-20T16:10:13.571Z,100711.68
2019-03-20T16:12:43.204Z,100712.33
2019-03-20T16:15:12.943Z,100697.31
2019-03-20T16:17:42.545Z,100646.70
2019-03-20T16:20:12.983Z,100713.48
2019-03-20T16:22:41.629Z,100766.16
2019-03-20T16:25:10.789Z,100706.30
2019-03-20T16:27:40.164Z,100710.48
2019-03-20T16:30:13.429Z,100718.92
2019-03-20T16:32:46.046Z,100711.52
2019-03-20T16:35:14.588Z,100695.83
2019-03-20T16:37:42.428Z,100689.73
2019-03-20T16:40:13.573Z,100718.89
2019-03-20T16:42:42.186Z,100723.81
2019-03-20T16:45:15.029Z,100717.41
2019-03-20T16:47:43.448Z,100712.19
2019-03-20T16:50:15.369Z,100718.70
2019-03-20T16:52:44.095Z,100726.44
2019-03-20T16:55:12.319Z,100718.33
2019-03-20T16:57:44.617Z,100723.22
2019-03-20T17:00:17.621Z,100740.47
2019-03-20T17:02:45.825Z,100731.03
2019-03-20T17:05:14.409Z,100728.25
2019-03-20T17:07:42.641Z,100726.27
2019-03-20T17:10:14.243Z,100726.59
2019-03-20T17:12:43.733Z,100728.95
2019-03-20T17:15:16.727Z,100723.09
2019-03-20T17:17:46.038Z,100726.62
2019-03-20T17:20:17.149Z,100727.78
2019-03-20T17:22:45.628Z,100729.58
2019-03-20T17:25:13.702Z,100723.94
2019-03-20T17:27:42.276Z,100735.22
2019-03-20T17:30:14.409Z,100698.75
2019-03-20T17:32:42.739Z,100732.98
2019-03-20T17:35:13.591Z,100729.22
2019-03-20T17:37:42.081Z,100742.45
2019-03-20T17:40:15.054Z,100746.32
2019-03-20T17:42:45.441Z,100755.87
2019-03-20T17:45:18.902Z,100701.11
2019-03-20T17:47:49.855Z,100752.32
2019-03-20T17:50:23.638Z,100753.34
2019-03-20T17:52:57.154Z,100521.85
2019-03-20T17:55:25.859Z,100773.89
2019-03-20T17:57:57.379Z,100761.38
2019-03-20T18:00:31.547Z,100757.88
2019-03-20T18:03:00.363Z,100763.78
2019-03-20T18:05:28.476Z,100763.39
2019-03-20T18:07:56.651Z,100772.31
2019-03-20T18:10:25.063Z,100757.21
2019-03-20T18:12:52.984Z,100760.72
2019-03-20T18:15:21.246Z,100763.63
2019-03-20T18:17:50.590Z,100766.73
2019-03-20T18:20:19.264Z,100765.27
2019-03-20T18:22:47.790Z,100767.41
2019-03-20T18:25:16.420Z,100770.52
2019-03-20T18:27:44.311Z,100769.96
2019-03-20T18:30:15.322Z,100771.06
2019-03-20T18:32:44.585Z,100771.98
2019-03-20T18:35:14.909Z,100786.11
2019-03-20T18:37:43.071Z,100780.63
2019-03-20T18:40:12.471Z,100776.84
2019-03-20T18:42:40.626Z,100785.39
2019-03-20T18:45:09.763Z,100792.48
2019-03-20T18:47:37.674Z,100779.08
2019-03-20T18:50:06.847Z,100789.69
2019-03-20T18:52:34.620Z,100812.69
2019-03-20T18:55:05.281Z,100799.62
2019-03-20T18:57:34.376Z,100758.72
2019-03-20T19:00:03.844Z,100799.16
2019-03-20T19:02:31.939Z,100799.44
2019-03-20T19:05:00.214Z,100798.31
2019-03-20T19:07:28.652Z,100794.61
2019-03-20T19:09:57.613Z,100798.48
2019-03-20T19:12:26.138Z,100794.98
2019-03-20T19:14:56.789Z,100793.13
2019-03-20T19:17:25.719Z,100805.69
2019-03-20T19:19:54.029Z,100810.09
2019-03-20T19:22:21.938Z,100813.75
2019-03-20T19:24:50.812Z,100815.63
2019-03-20T19:27:18.808Z,100811.00
2019-03-20T19:29:47.344Z,100810.50
2019-03-20T19:32:15.221Z,100815.48
2019-03-20T19:34:43.616Z,100842.96
2019-03-20T19:37:12.984Z,100789.97
2019-03-20T19:39:41.159Z,100798.72
2019-03-20T19:42:19.444Z,100790.88
2019-03-20T19:44:37.912Z,100796.88
2019-03-20T19:47:05.663Z,100821.91
2019-03-20T19:49:33.551Z,100822.95
2019-03-20T19:52:01.791Z,100822.64
2019-03-20T19:54:29.847Z,100818.77
2019-03-20T19:56:57.656Z,100821.62
2019-03-20T19:59:26.212Z,100818.30
2019-03-20T20:01:54.409Z,100777.06
2019-03-20T20:04:22.344Z,100807.45
2019-03-20T20:06:50.953Z,100825.38
2019-03-20T20:09:19.727Z,100822.05
2019-03-20T20:11:47.852Z,100829.03
2019-03-20T20:14:15.931Z,100813.25
2019-03-20T20:16:43.803Z,100794.70
2019-03-20T20:19:11.651Z,100800.14
2019-03-20T20:21:39.773Z,100839.19
2019-03-20T20:24:10.355Z,100787.47
2019-03-20T20:26:38.205Z,100836.14
2019-03-20T20:29:07.755Z,100812.38
2019-03-20T20:31:42.452Z,100783.89
2019-03-20T20:34:11.083Z,100842.40
2019-03-20T20:36:40.753Z,100806.55
2019-03-20T20:39:08.459Z,100835.95
2019-03-20T20:41:37.487Z,100848.06
2019-03-20T20:44:06.883Z,100824.19
2019-03-20T20:46:33.940Z,100825.44
2019-03-20T20:49:11.763Z,100668.33
2019-03-20T20:51:40.158Z,100816.98
2019-03-20T20:54:08.513Z,100838.62
2019-03-20T20:56:36.755Z,100832.36
2019-03-20T20:59:05.153Z,100818.51
2019-03-20T21:01:32.972Z,100852.80
2019-03-20T21:04:04.648Z,100829.75
2019-03-20T21:06:36.745Z,100733.26
2019-03-20T21:09:10.120Z,100837.47
2019-03-20T21:11:39.991Z,100782.14
2019-03-20T21:14:08.130Z,100792.55
2019-03-20T21:19:24.423Z,100832.96
2019-03-20T21:24:08.270Z,100831.17
2019-03-20T21:29:27.647Z,100825.50
2019-03-20T21:35:01.171Z,100793.53
2019-03-20T21:38:04.644Z,100797.33
2019-03-20T21:43:24.389Z,100827.33
2019-03-20T21:46:05.284Z,100823.00
2019-03-20T22:12:01.589Z,100838.53
2019-03-20T22:17:55.219Z,100793.98
2019-03-20T22:28:27.901Z,100826.44
2019-03-20T22:33:44.892Z,100810.24
2019-03-20T22:41:05.838Z,100847.61
2019-03-20T22:46:25.515Z,100852.08
2019-03-20T22:55:11.849Z,100857.30
